sensor_id;sensor_type;location;lat;lon;timestamp;temperature;humidity
63299;DHT22;54535;52.138;5.398;2022-07-23T00:00:15;18.70;91.40
63299;DHT22;54535;52.138;5.398;2022-07-23T00:02:42;18.60;91.40
63299;DHT22;54535;52.138;5.398;2022-07-23T00:05:09;18.60;91.30
63299;DHT22;54535;52.138;5.398;2022-07-23T00:07:36;18.50;91.50
63299;DHT22;54535;52.138;5.398;2022-07-23T00:10:04;18.50;91.60
63299;DHT22;54535;52.138;5.398;2022-07-23T00:12:31;18.50;91.60
63299;DHT22;54535;52.138;5.398;2022-07-23T00:14:58;18.50;91.70
63299;DHT22;54535;52.138;5.398;2022-07-23T00:17:25;18.40;91.80
63299;DHT22;54535;52.138;5.398;2022-07-23T00:19:52;18.40;91.90
63299;DHT22;54535;52.138;5.398;2022-07-23T00:22:20;18.40;91.90
63299;DHT22;54535;52.138;5.398;2022-07-23T00:24:46;18.40;92.10
63299;DHT22;54535;52.138;5.398;2022-07-23T00:27:33;18.30;92.10
63299;DHT22;54535;52.138;5.398;2022-07-23T00:30:00;18.30;92.20
63299;DHT22;54535;52.138;5.398;2022-07-23T00:32:27;18.30;92.20
63299;DHT22;54535;52.138;5.398;2022-07-23T00:35:14;18.30;92.30
63299;DHT22;54535;52.138;5.398;2022-07-23T00:37:41;18.20;92.40
63299;DHT22;54535;52.138;5.398;2022-07-23T00:40:09;18.20;92.40
63299;DHT22;54535;52.138;5.398;2022-07-23T00:42:36;18.20;92.50
63299;DHT22;54535;52.138;5.398;2022-07-23T00:45:04;18.20;92.60
63299;DHT22;54535;52.138;5.398;2022-07-23T00:47:30;18.10;92.60
63299;DHT22;54535;52.138;5.398;2022-07-23T00:49:57;18.10;92.50
63299;DHT22;54535;52.138;5.398;2022-07-23T00:52:25;18.00;92.70
63299;DHT22;54535;52.138;5.398;2022-07-23T00:54:51;18.00;92.80
63299;DHT22;54535;52.138;5.398;2022-07-23T00:57:18;18.00;92.80
63299;DHT22;54535;52.138;5.398;2022-07-23T00:59:51;18.00;92.90
63299;DHT22;54535;52.138;5.398;2022-07-23T01:02:17;18.00;93.00
63299;DHT22;54535;52.138;5.398;2022-07-23T01:04:44;17.90;92.90
63299;DHT22;54535;52.138;5.398;2022-07-23T01:07:11;17.90;93.00
63299;DHT22;54535;52.138;5.398;2022-07-23T01:09:38;17.80;93.10
63299;DHT22;54535;52.138;5.398;2022-07-23T01:12:06;17.80;93.20
63299;DHT22;54535;52.138;5.398;2022-07-23T01:14:33;17.80;93.20
63299;DHT22;54535;52.138;5.398;2022-07-23T01:17:00;17.80;93.30
63299;DHT22;54535;52.138;5.398;2022-07-23T01:19:27;17.80;93.30
63299;DHT22;54535;52.138;5.398;2022-07-23T01:21:57;17.70;93.30
63299;DHT22;54535;52.138;5.398;2022-07-23T01:24:24;17.70;93.40
63299;DHT22;54535;52.138;5.398;2022-07-23T01:27:05;17.70;93.40
63299;DHT22;54535;52.138;5.398;2022-07-23T01:29:35;17.70;93.40
63299;DHT22;54535;52.138;5.398;2022-07-23T01:32:07;17.60;93.50
63299;DHT22;54535;52.138;5.398;2022-07-23T01:34:34;17.60;93.50
63299;DHT22;54535;52.138;5.398;2022-07-23T01:37:01;17.60;93.50
63299;DHT22;54535;52.138;5.398;2022-07-23T01:39:28;17.60;93.50
63299;DHT22;54535;52.138;5.398;2022-07-23T01:41:57;17.60;93.60
63299;DHT22;54535;52.138;5.398;2022-07-23T01:44:24;17.50;93.60
63299;DHT22;54535;52.138;5.398;2022-07-23T01:46:51;17.50;93.70
63299;DHT22;54535;52.138;5.398;2022-07-23T01:49:20;17.50;93.70
63299;DHT22;54535;52.138;5.398;2022-07-23T01:51:59;17.50;93.70
63299;DHT22;54535;52.138;5.398;2022-07-23T01:54:37;17.50;93.70
63299;DHT22;54535;52.138;5.398;2022-07-23T01:57:06;17.40;93.70
63299;DHT22;54535;52.138;5.398;2022-07-23T01:59:34;17.40;93.80
63299;DHT22;54535;52.138;5.398;2022-07-23T02:02:02;17.40;93.80
63299;DHT22;54535;52.138;5.398;2022-07-23T02:04:30;17.40;93.90
63299;DHT22;54535;52.138;5.398;2022-07-23T02:06:58;17.40;94.00
63299;DHT22;54535;52.138;5.398;2022-07-23T02:09:26;17.30;94.00
63299;DHT22;54535;52.138;5.398;2022-07-23T02:11:53;17.30;94.00
63299;DHT22;54535;52.138;5.398;2022-07-23T02:14:20;17.30;94.00
63299;DHT22;54535;52.138;5.398;2022-07-23T02:16:46;17.20;94.00
63299;DHT22;54535;52.138;5.398;2022-07-23T02:19:14;17.30;94.10
63299;DHT22;54535;52.138;5.398;2022-07-23T02:21:41;17.20;94.10
63299;DHT22;54535;52.138;5.398;2022-07-23T02:24:08;17.20;94.10
63299;DHT22;54535;52.138;5.398;2022-07-23T02:26:34;17.20;94.10
63299;DHT22;54535;52.138;5.398;2022-07-23T02:29:04;17.20;94.20
63299;DHT22;54535;52.138;5.398;2022-07-23T02:31:32;17.20;94.30
63299;DHT22;54535;52.138;5.398;2022-07-23T02:33:59;17.10;94.20
63299;DHT22;54535;52.138;5.398;2022-07-23T02:36:27;17.10;94.30
63299;DHT22;54535;52.138;5.398;2022-07-23T02:38:54;17.10;94.30
63299;DHT22;54535;52.138;5.398;2022-07-23T02:41:21;17.10;94.30
63299;DHT22;54535;52.138;5.398;2022-07-23T02:43:47;17.00;94.40
63299;DHT22;54535;52.138;5.398;2022-07-23T02:46:15;17.00;94.40
63299;DHT22;54535;52.138;5.398;2022-07-23T02:48:42;17.00;94.40
63299;DHT22;54535;52.138;5.398;2022-07-23T02:51:09;17.00;94.40
63299;DHT22;54535;52.138;5.398;2022-07-23T02:53:44;17.00;94.40
63299;DHT22;54535;52.138;5.398;2022-07-23T02:56:11;16.90;94.20
63299;DHT22;54535;52.138;5.398;2022-07-23T02:58:38;16.90;94.30
63299;DHT22;54535;52.138;5.398;2022-07-23T03:01:05;16.90;94.40
63299;DHT22;54535;52.138;5.398;2022-07-23T03:03:31;16.80;94.40
63299;DHT22;54535;52.138;5.398;2022-07-23T03:05:59;16.80;94.50
63299;DHT22;54535;52.138;5.398;2022-07-23T03:08:26;16.80;94.50
63299;DHT22;54535;52.138;5.398;2022-07-23T03:10:53;16.80;94.80
63299;DHT22;54535;52.138;5.398;2022-07-23T03:13:20;16.80;94.50
63299;DHT22;54535;52.138;5.398;2022-07-23T03:15:47;16.70;94.50
63299;DHT22;54535;52.138;5.398;2022-07-23T03:18:14;16.70;94.50
63299;DHT22;54535;52.138;5.398;2022-07-23T03:20:41;16.70;94.50
63299;DHT22;54535;52.138;5.398;2022-07-23T03:23:08;16.70;94.50
63299;DHT22;54535;52.138;5.398;2022-07-23T03:25:36;16.70;94.50
63299;DHT22;54535;52.138;5.398;2022-07-23T03:28:03;16.70;94.50
63299;DHT22;54535;52.138;5.398;2022-07-23T03:30:30;16.60;94.50
63299;DHT22;54535;52.138;5.398;2022-07-23T03:32:57;16.60;94.50
63299;DHT22;54535;52.138;5.398;2022-07-23T03:35:24;16.60;94.60
63299;DHT22;54535;52.138;5.398;2022-07-23T03:38:17;16.60;94.60
63299;DHT22;54535;52.138;5.398;2022-07-23T03:40:45;16.60;94.70
63299;DHT22;54535;52.138;5.398;2022-07-23T03:43:12;16.60;94.80
63299;DHT22;54535;52.138;5.398;2022-07-23T03:45:38;16.60;94.90
63299;DHT22;54535;52.138;5.398;2022-07-23T03:48:06;16.60;94.80
63299;DHT22;54535;52.138;5.398;2022-07-23T03:50:33;16.60;94.80
63299;DHT22;54535;52.138;5.398;2022-07-23T03:53:01;16.60;94.90
63299;DHT22;54535;52.138;5.398;2022-07-23T03:55:28;16.60;94.90
63299;DHT22;54535;52.138;5.398;2022-07-23T03:57:56;16.60;94.90
63299;DHT22;54535;52.138;5.398;2022-07-23T04:00:22;16.60;95.00
63299;DHT22;54535;52.138;5.398;2022-07-23T04:02:50;16.60;94.90
63299;DHT22;54535;52.138;5.398;2022-07-23T04:05:17;16.60;95.00
63299;DHT22;54535;52.138;5.398;2022-07-23T04:07:48;16.60;95.00
63299;DHT22;54535;52.138;5.398;2022-07-23T04:10:15;16.50;95.00
63299;DHT22;54535;52.138;5.398;2022-07-23T04:12:42;16.50;95.10
63299;DHT22;54535;52.138;5.398;2022-07-23T04:15:09;16.50;95.10
63299;DHT22;54535;52.138;5.398;2022-07-23T04:17:36;16.60;95.10
63299;DHT22;54535;52.138;5.398;2022-07-23T04:20:03;16.50;95.00
63299;DHT22;54535;52.138;5.398;2022-07-23T04:22:36;16.50;95.10
63299;DHT22;54535;52.138;5.398;2022-07-23T04:25:03;16.50;95.10
63299;DHT22;54535;52.138;5.398;2022-07-23T04:27:30;16.50;95.10
63299;DHT22;54535;52.138;5.398;2022-07-23T04:30:00;16.50;95.10
63299;DHT22;54535;52.138;5.398;2022-07-23T04:32:27;16.50;95.10
63299;DHT22;54535;52.138;5.398;2022-07-23T04:34:54;16.60;95.10
63299;DHT22;54535;52.138;5.398;2022-07-23T04:37:21;16.50;95.10
63299;DHT22;54535;52.138;5.398;2022-07-23T04:39:47;16.50;95.10
63299;DHT22;54535;52.138;5.398;2022-07-23T04:42:14;16.60;95.10
63299;DHT22;54535;52.138;5.398;2022-07-23T04:44:41;16.50;95.10
63299;DHT22;54535;52.138;5.398;2022-07-23T04:47:08;16.50;95.20
63299;DHT22;54535;52.138;5.398;2022-07-23T04:49:38;16.60;95.20
63299;DHT22;54535;52.138;5.398;2022-07-23T04:52:05;16.60;95.20
63299;DHT22;54535;52.138;5.398;2022-07-23T04:54:32;16.60;95.20
63299;DHT22;54535;52.138;5.398;2022-07-23T04:56:59;16.60;95.30
63299;DHT22;54535;52.138;5.398;2022-07-23T04:59:26;16.60;95.30
63299;DHT22;54535;52.138;5.398;2022-07-23T05:01:58;16.50;95.30
63299;DHT22;54535;52.138;5.398;2022-07-23T05:04:25;16.50;95.40
63299;DHT22;54535;52.138;5.398;2022-07-23T05:06:52;16.50;95.40
63299;DHT22;54535;52.138;5.398;2022-07-23T05:09:19;16.50;95.40
63299;DHT22;54535;52.138;5.398;2022-07-23T05:11:46;16.60;95.50
63299;DHT22;54535;52.138;5.398;2022-07-23T05:14:13;16.60;95.50
63299;DHT22;54535;52.138;5.398;2022-07-23T05:16:41;16.60;95.50
63299;DHT22;54535;52.138;5.398;2022-07-23T05:19:13;16.60;95.50
63299;DHT22;54535;52.138;5.398;2022-07-23T05:21:41;16.60;95.50
63299;DHT22;54535;52.138;5.398;2022-07-23T05:24:08;16.60;95.60
63299;DHT22;54535;52.138;5.398;2022-07-23T05:26:34;16.60;95.60
63299;DHT22;54535;52.138;5.398;2022-07-23T05:29:01;16.60;95.70
63299;DHT22;54535;52.138;5.398;2022-07-23T05:31:29;16.70;95.70
63299;DHT22;54535;52.138;5.398;2022-07-23T05:33:56;16.70;95.80
63299;DHT22;54535;52.138;5.398;2022-07-23T05:36:23;16.80;95.80
63299;DHT22;54535;52.138;5.398;2022-07-23T05:38:53;16.80;95.70
63299;DHT22;54535;52.138;5.398;2022-07-23T05:41:20;16.80;95.70
63299;DHT22;54535;52.138;5.398;2022-07-23T05:43:47;16.90;95.80
63299;DHT22;54535;52.138;5.398;2022-07-23T05:46:14;16.90;95.80
63299;DHT22;54535;52.138;5.398;2022-07-23T05:48:44;16.90;95.80
63299;DHT22;54535;52.138;5.398;2022-07-23T05:51:41;17.00;95.80
63299;DHT22;54535;52.138;5.398;2022-07-23T05:54:12;17.10;95.80
63299;DHT22;54535;52.138;5.398;2022-07-23T05:56:39;17.10;95.90
63299;DHT22;54535;52.138;5.398;2022-07-23T05:59:06;17.10;95.80
63299;DHT22;54535;52.138;5.398;2022-07-23T06:01:33;17.10;95.70
63299;DHT22;54535;52.138;5.398;2022-07-23T06:04:09;17.10;95.60
63299;DHT22;54535;52.138;5.398;2022-07-23T06:06:40;17.10;95.60
63299;DHT22;54535;52.138;5.398;2022-07-23T06:09:09;17.20;95.70
63299;DHT22;54535;52.138;5.398;2022-07-23T06:11:37;17.20;95.90
63299;DHT22;54535;52.138;5.398;2022-07-23T06:14:05;17.20;95.80
63299;DHT22;54535;52.138;5.398;2022-07-23T06:16:45;17.20;95.80
63299;DHT22;54535;52.138;5.398;2022-07-23T06:19:12;17.20;95.90
63299;DHT22;54535;52.138;5.398;2022-07-23T06:21:39;17.30;96.00
63299;DHT22;54535;52.138;5.398;2022-07-23T06:24:15;17.20;96.10
63299;DHT22;54535;52.138;5.398;2022-07-23T06:26:42;17.30;96.20
63299;DHT22;54535;52.138;5.398;2022-07-23T06:29:09;17.40;96.10
63299;DHT22;54535;52.138;5.398;2022-07-23T06:31:36;17.50;96.40
63299;DHT22;54535;52.138;5.398;2022-07-23T06:34:03;17.50;96.20
63299;DHT22;54535;52.138;5.398;2022-07-23T06:36:30;17.60;96.20
63299;DHT22;54535;52.138;5.398;2022-07-23T06:38:57;17.70;96.10
63299;DHT22;54535;52.138;5.398;2022-07-23T06:41:24;17.80;96.10
63299;DHT22;54535;52.138;5.398;2022-07-23T06:43:50;17.90;96.10
63299;DHT22;54535;52.138;5.398;2022-07-23T06:46:20;17.90;95.90
63299;DHT22;54535;52.138;5.398;2022-07-23T06:48:49;18.00;95.80
63299;DHT22;54535;52.138;5.398;2022-07-23T06:51:15;18.00;95.60
63299;DHT22;54535;52.138;5.398;2022-07-23T06:53:43;18.10;95.50
63299;DHT22;54535;52.138;5.398;2022-07-23T06:56:09;18.20;95.30
63299;DHT22;54535;52.138;5.398;2022-07-23T06:58:38;18.20;94.90
63299;DHT22;54535;52.138;5.398;2022-07-23T07:01:05;18.30;94.60
63299;DHT22;54535;52.138;5.398;2022-07-23T07:03:33;18.30;94.40
63299;DHT22;54535;52.138;5.398;2022-07-23T07:06:00;18.40;94.10
63299;DHT22;54535;52.138;5.398;2022-07-23T07:08:28;18.50;93.80
63299;DHT22;54535;52.138;5.398;2022-07-23T07:10:55;18.50;93.40
63299;DHT22;54535;52.138;5.398;2022-07-23T07:13:22;18.50;93.10
63299;DHT22;54535;52.138;5.398;2022-07-23T07:15:50;18.50;92.90
63299;DHT22;54535;52.138;5.398;2022-07-23T07:18:18;18.60;92.80
63299;DHT22;54535;52.138;5.398;2022-07-23T07:20:45;18.70;92.70
63299;DHT22;54535;52.138;5.398;2022-07-23T07:23:12;18.70;92.40
63299;DHT22;54535;52.138;5.398;2022-07-23T07:25:42;18.80;92.20
63299;DHT22;54535;52.138;5.398;2022-07-23T07:28:09;18.70;92.00
63299;DHT22;54535;52.138;5.398;2022-07-23T07:30:36;18.80;91.80
63299;DHT22;54535;52.138;5.398;2022-07-23T07:33:03;18.80;91.80
63299;DHT22;54535;52.138;5.398;2022-07-23T07:35:30;18.80;91.80
63299;DHT22;54535;52.138;5.398;2022-07-23T07:38:00;18.90;91.50
63299;DHT22;54535;52.138;5.398;2022-07-23T07:40:28;18.90;91.50
63299;DHT22;54535;52.138;5.398;2022-07-23T07:43:00;18.90;91.40
63299;DHT22;54535;52.138;5.398;2022-07-23T07:45:29;19.00;91.30
63299;DHT22;54535;52.138;5.398;2022-07-23T07:47:56;19.00;91.10
63299;DHT22;54535;52.138;5.398;2022-07-23T07:50:24;19.10;91.00
63299;DHT22;54535;52.138;5.398;2022-07-23T07:52:51;19.10;90.80
63299;DHT22;54535;52.138;5.398;2022-07-23T07:55:19;19.10;91.10
63299;DHT22;54535;52.138;5.398;2022-07-23T07:57:46;19.10;91.30
63299;DHT22;54535;52.138;5.398;2022-07-23T08:00:21;19.20;91.10
63299;DHT22;54535;52.138;5.398;2022-07-23T08:02:53;19.20;91.10
63299;DHT22;54535;52.138;5.398;2022-07-23T08:05:21;19.30;91.10
63299;DHT22;54535;52.138;5.398;2022-07-23T08:07:54;19.30;90.90
63299;DHT22;54535;52.138;5.398;2022-07-23T08:10:22;19.40;90.80
63299;DHT22;54535;52.138;5.398;2022-07-23T08:12:51;19.50;90.90
63299;DHT22;54535;52.138;5.398;2022-07-23T08:15:20;19.50;90.70
63299;DHT22;54535;52.138;5.398;2022-07-23T08:17:47;19.50;90.50
63299;DHT22;54535;52.138;5.398;2022-07-23T08:20:15;19.60;90.30
63299;DHT22;54535;52.138;5.398;2022-07-23T08:22:57;19.60;90.30
63299;DHT22;54535;52.138;5.398;2022-07-23T08:25:31;19.60;90.00
63299;DHT22;54535;52.138;5.398;2022-07-23T08:27:59;19.70;90.10
63299;DHT22;54535;52.138;5.398;2022-07-23T08:30:27;19.70;90.10
63299;DHT22;54535;52.138;5.398;2022-07-23T08:35:38;19.80;89.80
63299;DHT22;54535;52.138;5.398;2022-07-23T08:38:08;19.80;88.80
63299;DHT22;54535;52.138;5.398;2022-07-23T08:40:40;19.90;88.70
63299;DHT22;54535;52.138;5.398;2022-07-23T08:43:11;19.90;88.50
63299;DHT22;54535;52.138;5.398;2022-07-23T08:45:41;19.90;88.00
63299;DHT22;54535;52.138;5.398;2022-07-23T08:48:11;19.90;87.80
63299;DHT22;54535;52.138;5.398;2022-07-23T08:50:42;19.90;87.70
63299;DHT22;54535;52.138;5.398;2022-07-23T08:53:09;20.00;87.60
63299;DHT22;54535;52.138;5.398;2022-07-23T08:55:36;20.10;87.50
63299;DHT22;54535;52.138;5.398;2022-07-23T08:58:03;20.10;87.30
63299;DHT22;54535;52.138;5.398;2022-07-23T09:00:31;20.20;87.00
63299;DHT22;54535;52.138;5.398;2022-07-23T09:02:58;20.30;86.60
63299;DHT22;54535;52.138;5.398;2022-07-23T09:05:25;20.30;85.10
63299;DHT22;54535;52.138;5.398;2022-07-23T09:08:14;20.30;83.60
63299;DHT22;54535;52.138;5.398;2022-07-23T09:16:23;20.50;82.40
63299;DHT22;54535;52.138;5.398;2022-07-23T09:18:54;20.50;82.70
63299;DHT22;54535;52.138;5.398;2022-07-23T09:23:54;20.50;83.00
63299;DHT22;54535;52.138;5.398;2022-07-23T09:26:39;20.60;83.10
63299;DHT22;54535;52.138;5.398;2022-07-23T09:29:12;20.70;83.10
63299;DHT22;54535;52.138;5.398;2022-07-23T09:31:46;20.80;83.30
63299;DHT22;54535;52.138;5.398;2022-07-23T09:36:47;20.90;82.80
63299;DHT22;54535;52.138;5.398;2022-07-23T09:39:15;20.90;83.00
63299;DHT22;54535;52.138;5.398;2022-07-23T09:41:46;20.90;83.90
63299;DHT22;54535;52.138;5.398;2022-07-23T09:44:15;21.00;82.50
63299;DHT22;54535;52.138;5.398;2022-07-23T09:46:44;21.10;81.80
63299;DHT22;54535;52.138;5.398;2022-07-23T09:49:22;21.10;81.20
63299;DHT22;54535;52.138;5.398;2022-07-23T09:51:58;21.10;80.40
63299;DHT22;54535;52.138;5.398;2022-07-23T09:54:36;21.20;80.30
63299;DHT22;54535;52.138;5.398;2022-07-23T09:57:12;21.20;80.20
63299;DHT22;54535;52.138;5.398;2022-07-23T09:59:44;21.20;80.40
63299;DHT22;54535;52.138;5.398;2022-07-23T10:02:14;21.20;80.80
63299;DHT22;54535;52.138;5.398;2022-07-23T10:05:00;21.30;80.70
63299;DHT22;54535;52.138;5.398;2022-07-23T10:07:48;21.40;80.60
63299;DHT22;54535;52.138;5.398;2022-07-23T10:10:39;21.50;81.20
63299;DHT22;54535;52.138;5.398;2022-07-23T10:13:15;21.50;80.50
63299;DHT22;54535;52.138;5.398;2022-07-23T10:16:03;21.60;79.80
63299;DHT22;54535;52.138;5.398;2022-07-23T10:18:30;21.70;79.50
63299;DHT22;54535;52.138;5.398;2022-07-23T10:20:59;21.70;79.10
63299;DHT22;54535;52.138;5.398;2022-07-23T10:24:01;21.80;79.50
63299;DHT22;54535;52.138;5.398;2022-07-23T10:26:39;21.80;78.80
63299;DHT22;54535;52.138;5.398;2022-07-23T10:29:23;21.90;79.50
63299;DHT22;54535;52.138;5.398;2022-07-23T10:32:02;22.00;80.50
63299;DHT22;54535;52.138;5.398;2022-07-23T10:37:23;22.10;76.60
63299;DHT22;54535;52.138;5.398;2022-07-23T10:40:22;22.10;76.50
63299;DHT22;54535;52.138;5.398;2022-07-23T10:42:50;22.20;76.80
63299;DHT22;54535;52.138;5.398;2022-07-23T10:45:28;22.20;76.90
63299;DHT22;54535;52.138;5.398;2022-07-23T10:47:56;22.30;77.40
63299;DHT22;54535;52.138;5.398;2022-07-23T10:50:38;22.40;77.10
63299;DHT22;54535;52.138;5.398;2022-07-23T10:53:14;22.50;76.70
63299;DHT22;54535;52.138;5.398;2022-07-23T10:55:51;22.50;77.00
63299;DHT22;54535;52.138;5.398;2022-07-23T10:58:22;22.60;77.30
63299;DHT22;54535;52.138;5.398;2022-07-23T11:00:49;22.60;76.20
63299;DHT22;54535;52.138;5.398;2022-07-23T11:03:35;22.70;76.30
63299;DHT22;54535;52.138;5.398;2022-07-23T11:06:04;22.80;76.50
63299;DHT22;54535;52.138;5.398;2022-07-23T11:08:31;22.80;75.60
63299;DHT22;54535;52.138;5.398;2022-07-23T11:13:39;22.90;74.90
63299;DHT22;54535;52.138;5.398;2022-07-23T11:16:23;23.00;75.20
63299;DHT22;54535;52.138;5.398;2022-07-23T11:19:04;23.10;73.60
63299;DHT22;54535;52.138;5.398;2022-07-23T11:21:41;23.10;74.00
63299;DHT22;54535;52.138;5.398;2022-07-23T11:34:45;23.20;73.80
63299;DHT22;54535;52.138;5.398;2022-07-23T11:37:41;23.30;74.00
63299;DHT22;54535;52.138;5.398;2022-07-23T11:40:11;23.30;73.30
63299;DHT22;54535;52.138;5.398;2022-07-23T11:42:39;23.30;72.50
63299;DHT22;54535;52.138;5.398;2022-07-23T11:45:08;23.40;70.90
63299;DHT22;54535;52.138;5.398;2022-07-23T11:47:35;23.40;72.00
63299;DHT22;54535;52.138;5.398;2022-07-23T11:50:04;23.40;72.80
63299;DHT22;54535;52.138;5.398;2022-07-23T11:52:31;23.40;73.40
63299;DHT22;54535;52.138;5.398;2022-07-23T11:55:01;23.50;72.00
63299;DHT22;54535;52.138;5.398;2022-07-23T11:57:41;23.50;72.30
63299;DHT22;54535;52.138;5.398;2022-07-23T12:00:09;23.50;72.50
63299;DHT22;54535;52.138;5.398;2022-07-23T12:02:46;23.60;70.00
63299;DHT22;54535;52.138;5.398;2022-07-23T12:05:25;23.50;71.70
63299;DHT22;54535;52.138;5.398;2022-07-23T12:07:54;23.60;72.30
63299;DHT22;54535;52.138;5.398;2022-07-23T12:10:25;23.60;72.40
63299;DHT22;54535;52.138;5.398;2022-07-23T12:12:55;23.60;72.50
63299;DHT22;54535;52.138;5.398;2022-07-23T12:15:34;23.70;72.10
63299;DHT22;54535;52.138;5.398;2022-07-23T12:18:04;23.80;72.30
63299;DHT22;54535;52.138;5.398;2022-07-23T12:20:34;23.90;71.70
63299;DHT22;54535;52.138;5.398;2022-07-23T12:23:04;24.10;70.10
63299;DHT22;54535;52.138;5.398;2022-07-23T12:25:34;24.20;70.30
63299;DHT22;54535;52.138;5.398;2022-07-23T12:28:09;24.30;69.90
63299;DHT22;54535;52.138;5.398;2022-07-23T12:30:48;24.40;67.80
63299;DHT22;54535;52.138;5.398;2022-07-23T12:33:23;24.50;68.90
63299;DHT22;54535;52.138;5.398;2022-07-23T12:35:53;24.70;69.70
63299;DHT22;54535;52.138;5.398;2022-07-23T12:38:21;24.90;69.60
63299;DHT22;54535;52.138;5.398;2022-07-23T12:40:54;25.10;68.70
63299;DHT22;54535;52.138;5.398;2022-07-23T12:43:26;25.10;67.50
63299;DHT22;54535;52.138;5.398;2022-07-23T12:45:55;25.10;65.70
63299;DHT22;54535;52.138;5.398;2022-07-23T12:48:52;25.10;65.90
63299;DHT22;54535;52.138;5.398;2022-07-23T12:51:21;25.10;65.70
63299;DHT22;54535;52.138;5.398;2022-07-23T12:53:53;25.10;65.90
63299;DHT22;54535;52.138;5.398;2022-07-23T13:01:32;25.20;65.40
63299;DHT22;54535;52.138;5.398;2022-07-23T13:04:06;25.30;65.30
63299;DHT22;54535;52.138;5.398;2022-07-23T13:06:41;25.30;65.10
63299;DHT22;54535;52.138;5.398;2022-07-23T13:09:12;25.30;65.10
63299;DHT22;54535;52.138;5.398;2022-07-23T13:11:42;25.30;65.30
63299;DHT22;54535;52.138;5.398;2022-07-23T13:14:10;25.30;65.20
63299;DHT22;54535;52.138;5.398;2022-07-23T13:16:38;25.40;66.10
63299;DHT22;54535;52.138;5.398;2022-07-23T13:19:05;25.50;64.80
63299;DHT22;54535;52.138;5.398;2022-07-23T13:21:38;25.60;65.20
63299;DHT22;54535;52.138;5.398;2022-07-23T13:24:06;25.80;64.20
63299;DHT22;54535;52.138;5.398;2022-07-23T13:26:53;26.00;63.30
63299;DHT22;54535;52.138;5.398;2022-07-23T13:29:20;26.10;62.80
63299;DHT22;54535;52.138;5.398;2022-07-23T13:31:47;26.30;63.90
63299;DHT22;54535;52.138;5.398;2022-07-23T13:34:16;26.50;62.70
63299;DHT22;54535;52.138;5.398;2022-07-23T13:36:44;26.70;61.50
63299;DHT22;54535;52.138;5.398;2022-07-23T13:39:11;26.80;61.50
63299;DHT22;54535;52.138;5.398;2022-07-23T13:41:38;27.00;61.80
63299;DHT22;54535;52.138;5.398;2022-07-23T13:44:05;27.20;61.80
63299;DHT22;54535;52.138;5.398;2022-07-23T13:46:33;27.20;61.70
63299;DHT22;54535;52.138;5.398;2022-07-23T13:49:00;27.20;62.00
63299;DHT22;54535;52.138;5.398;2022-07-23T13:51:28;27.20;63.00
63299;DHT22;54535;52.138;5.398;2022-07-23T13:53:55;27.20;63.30
63299;DHT22;54535;52.138;5.398;2022-07-23T13:56:25;27.20;62.70
63299;DHT22;54535;52.138;5.398;2022-07-23T13:58:52;27.30;61.20
63299;DHT22;54535;52.138;5.398;2022-07-23T14:01:22;27.40;61.00
63299;DHT22;54535;52.138;5.398;2022-07-23T14:03:50;27.50;60.80
63299;DHT22;54535;52.138;5.398;2022-07-23T14:06:17;27.50;61.10
63299;DHT22;54535;52.138;5.398;2022-07-23T14:08:55;27.50;60.10
63299;DHT22;54535;52.138;5.398;2022-07-23T14:11:21;27.40;59.90
63299;DHT22;54535;52.138;5.398;2022-07-23T14:13:48;27.40;59.20
63299;DHT22;54535;52.138;5.398;2022-07-23T14:16:15;27.40;59.00
63299;DHT22;54535;52.138;5.398;2022-07-23T14:18:43;27.40;59.10
63299;DHT22;54535;52.138;5.398;2022-07-23T14:21:10;27.40;59.20
63299;DHT22;54535;52.138;5.398;2022-07-23T14:23:36;27.40;59.70
63299;DHT22;54535;52.138;5.398;2022-07-23T14:26:05;27.40;59.50
63299;DHT22;54535;52.138;5.398;2022-07-23T14:28:34;27.50;59.50
63299;DHT22;54535;52.138;5.398;2022-07-23T14:31:01;27.50;59.90
63299;DHT22;54535;52.138;5.398;2022-07-23T14:33:29;27.50;60.60
63299;DHT22;54535;52.138;5.398;2022-07-23T14:35:56;27.40;61.70
63299;DHT22;54535;52.138;5.398;2022-07-23T14:38:23;27.40;62.00
63299;DHT22;54535;52.138;5.398;2022-07-23T14:40:49;27.40;62.30
63299;DHT22;54535;52.138;5.398;2022-07-23T14:43:16;27.30;62.20
63299;DHT22;54535;52.138;5.398;2022-07-23T14:45:43;27.30;60.50
63299;DHT22;54535;52.138;5.398;2022-07-23T14:48:15;27.20;59.70
63299;DHT22;54535;52.138;5.398;2022-07-23T14:50:41;27.00;59.20
63299;DHT22;54535;52.138;5.398;2022-07-23T14:53:08;26.90;60.20
63299;DHT22;54535;52.138;5.398;2022-07-23T14:55:35;26.80;60.50
63299;DHT22;54535;52.138;5.398;2022-07-23T14:58:05;26.70;59.80
63299;DHT22;54535;52.138;5.398;2022-07-23T15:00:33;26.60;61.80
63299;DHT22;54535;52.138;5.398;2022-07-23T15:03:00;26.60;62.60
63299;DHT22;54535;52.138;5.398;2022-07-23T15:05:26;26.50;63.00
63299;DHT22;54535;52.138;5.398;2022-07-23T15:07:55;26.50;63.40
63299;DHT22;54535;52.138;5.398;2022-07-23T15:10:22;26.50;64.00
63299;DHT22;54535;52.138;5.398;2022-07-23T15:12:49;26.40;64.30
63299;DHT22;54535;52.138;5.398;2022-07-23T15:15:16;26.40;64.20
63299;DHT22;54535;52.138;5.398;2022-07-23T15:17:44;26.30;63.90
63299;DHT22;54535;52.138;5.398;2022-07-23T15:20:11;26.30;64.60
63299;DHT22;54535;52.138;5.398;2022-07-23T15:22:41;26.20;65.50
63299;DHT22;54535;52.138;5.398;2022-07-23T15:25:08;26.20;65.60
63299;DHT22;54535;52.138;5.398;2022-07-23T15:27:38;26.10;66.20
63299;DHT22;54535;52.138;5.398;2022-07-23T15:30:05;26.00;66.90
63299;DHT22;54535;52.138;5.398;2022-07-23T15:32:34;26.00;67.50
63299;DHT22;54535;52.138;5.398;2022-07-23T15:35:01;25.90;68.00
63299;DHT22;54535;52.138;5.398;2022-07-23T15:37:29;25.90;68.30
63299;DHT22;54535;52.138;5.398;2022-07-23T15:39:56;25.80;68.70
63299;DHT22;54535;52.138;5.398;2022-07-23T15:42:23;25.80;69.00
63299;DHT22;54535;52.138;5.398;2022-07-23T15:44:50;25.70;69.60
63299;DHT22;54535;52.138;5.398;2022-07-23T15:47:17;25.70;70.30
63299;DHT22;54535;52.138;5.398;2022-07-23T15:49:45;25.60;70.80
63299;DHT22;54535;52.138;5.398;2022-07-23T15:52:13;25.60;70.90
63299;DHT22;54535;52.138;5.398;2022-07-23T15:54:40;25.60;70.90
63299;DHT22;54535;52.138;5.398;2022-07-23T15:57:07;25.60;70.70
63299;DHT22;54535;52.138;5.398;2022-07-23T15:59:34;25.60;70.90
63299;DHT22;54535;52.138;5.398;2022-07-23T16:02:01;25.50;70.80
63299;DHT22;54535;52.138;5.398;2022-07-23T16:04:29;25.50;71.10
63299;DHT22;54535;52.138;5.398;2022-07-23T16:06:56;25.50;71.20
63299;DHT22;54535;52.138;5.398;2022-07-23T16:09:23;25.50;71.00
63299;DHT22;54535;52.138;5.398;2022-07-23T16:11:50;25.40;70.80
63299;DHT22;54535;52.138;5.398;2022-07-23T16:14:17;25.40;70.80
63299;DHT22;54535;52.138;5.398;2022-07-23T16:16:44;25.40;71.00
63299;DHT22;54535;52.138;5.398;2022-07-23T16:19:11;25.40;71.20